Time;durP1;ratioP1;P1;durP2;ratioP2;P2;SDS_P1;SDS_P2;PMS_P1;PMS_P2;Temp;Humidity;BMP_temperature;BMP_pressure;BME280_temperature;BME280_humidity;BME280_pressure;Samples;Min_cycle;Max_cycle;Signal;HPM_P1;HPM_P2
2023/12/19 00:01:46;;;;;;;;;;;;;;;2.41;70.68;101810.03;5451815;32;34186;-78
2023/12/19 00:04:48;;;;;;;;;;;;;;;1.95;71.90;101804.03;5456610;32;34376;-79
2023/12/19 00:07:50;;;;;;;;;;;;;;;2.56;70.14;101794.72;5464484;32;35075;-79
2023/12/19 00:10:52;;;;;;;;;;;;;;;1.49;75.32;101802.28;5467064;32;34764;-80
2023/12/19 00:13:58;;;;;;;;;;;;;;;1.43;75.46;101802.13;5468512;32;34951;-78
2023/12/19 00:17:02;;;;;;;;;;;;;;;1.54;76.09;101810.97;5436434;32;33780;-79
2023/12/19 00:20:04;;;;;;;;;;;;;;;1.45;75.21;101811.69;5469916;32;35700;-80
2023/12/19 00:23:10;;;;;;;;;;;;;;;1.54;76.02;101806.66;5448253;32;35295;-77
2023/12/19 00:26:17;;;;;;;;;;;;;;;1.61;74.71;101813.75;5439924;32;33890;-78
2023/12/19 00:29:19;;;;;;;;;;;;;;;1.46;75.49;101815.12;5471433;32;35300;-80
2023/12/19 00:32:21;;;;;;;;;;;;;;;1.93;74.82;101821.25;5448506;32;35547;-79
2023/12/19 00:35:23;;;;;;;;;;;;;;;1.89;74.84;101825.53;5454339;32;34730;-79
2023/12/19 00:38:25;;;;;;;;;;;;;;;1.73;73.81;101817.41;5465766;32;35326;-79
2023/12/19 00:41:28;;;;;;;;;;;;;;;1.65;74.51;101819.84;5457498;32;34958;-78
2023/12/19 00:44:30;;;;;;;;;;;;;;;1.72;74.52;101821.72;5467329;32;33302;-78
2023/12/19 00:47:32;;;;;;;;;;;;;;;0.80;77.41;101821.44;5466270;32;34995;-78
2023/12/19 00:50:35;;;;;;;;;;;;;;;1.15;76.34;101826.56;5466789;32;35412;-79
2023/12/19 00:53:37;;;;;;;;;;;;;;;1.92;74.50;101821.25;5464161;32;35059;-81
2023/12/19 00:56:42;;;;;;;;;;;;;;;1.27;76.47;101829.41;5456169;32;35549;-80
2023/12/19 00:59:48;;;;;;;;;;;;;;;1.33;76.22;101819.19;5452488;32;34960;-78
2023/12/19 01:02:50;;;;;;;;;;;;;;;1.25;75.33;101823.34;5455090;32;35432;-79
2023/12/19 01:05:52;;;;;;;;;;;;;;;1.41;75.51;101824.53;5467136;32;34783;-77
2023/12/19 01:08:54;;;;;;;;;;;;;;;1.39;75.41;101821.03;5466562;32;34933;-80
2023/12/19 01:11:58;;;;;;;;;;;;;;;1.21;75.42;101826.69;5470180;32;35290;-78
2023/12/19 01:15:00;;;;;;;;;;;;;;;1.14;75.73;101822.22;5450587;32;34689;-78
2023/12/19 01:18:02;;;;;;;;;;;;;;;1.21;76.11;101824.97;5469732;32;35042;-79
2023/12/19 01:21:05;;;;;;;;;;;;;;;0.60;77.71;101836.50;5466167;32;34370;-79
2023/12/19 01:24:13;;;;;;;;;;;;;;;1.21;76.62;101830.16;5470484;32;34647;-78
2023/12/19 01:27:23;;;;;;;;;;;;;;;1.02;76.63;101831.44;5466684;32;35356;-80
2023/12/19 01:30:26;;;;;;;;;;;;;;;1.27;77.61;101822.53;5451046;32;34340;-81
2023/12/19 01:33:28;;;;;;;;;;;;;;;0.93;76.50;101823.47;5441905;32;34738;-81
2023/12/19 01:36:30;;;;;;;;;;;;;;;0.84;77.11;101819.78;5466510;32;34383;-79
2023/12/19 01:39:33;;;;;;;;;;;;;;;1.75;73.33;101806.25;5476906;32;35082;-78
2023/12/19 01:42:35;;;;;;;;;;;;;;;1.39;74.01;101800.31;5466507;32;34744;-78
2023/12/19 01:45:37;;;;;;;;;;;;;;;1.23;75.10;101788.78;5469308;32;34829;-79
2023/12/19 01:48:40;;;;;;;;;;;;;;;1.21;74.06;101782.66;5450142;32;34631;-78
2023/12/19 01:51:42;;;;;;;;;;;;;;;1.15;75.65;101761.81;5465117;32;34692;-79
2023/12/19 01:54:44;;;;;;;;;;;;;;;1.33;74.43;101762.19;5458476;32;34363;-78
2023/12/19 01:57:48;;;;;;;;;;;;;;;1.36;75.02;101754.50;5465671;32;36495;-79
2023/12/19 02:00:50;;;;;;;;;;;;;;;1.20;76.08;101749.84;5464087;32;34546;-78
2023/12/19 02:03:53;;;;;;;;;;;;;;;1.28;75.72;101751.72;5465386;32;34079;-78
2023/12/19 02:06:55;;;;;;;;;;;;;;;1.15;77.51;101751.44;5459502;32;34187;-80
2023/12/19 02:09:58;;;;;;;;;;;;;;;0.98;78.50;101756.28;5469886;32;35217;-78
2023/12/19 02:13:01;;;;;;;;;;;;;;;1.51;76.62;101753.94;5466892;32;35653;-79
2023/12/19 02:16:03;;;;;;;;;;;;;;;0.96;78.01;101764.00;5441374;32;34343;-78
2023/12/19 02:19:06;;;;;;;;;;;;;;;1.32;77.01;101755.28;5457576;32;34845;-79
2023/12/19 02:22:08;;;;;;;;;;;;;;;1.31;78.60;101750.94;5457862;32;35831;-77
2023/12/19 02:25:10;;;;;;;;;;;;;;;1.06;78.42;101754.72;5468192;32;34950;-78
2023/12/19 02:28:12;;;;;;;;;;;;;;;0.84;79.69;101757.66;5467029;32;34159;-78
2023/12/19 02:31:15;;;;;;;;;;;;;;;1.24;79.88;101749.94;5471128;32;34922;-78
2023/12/19 02:34:17;;;;;;;;;;;;;;;1.11;79.13;101749.66;5473874;32;34404;-79
2023/12/19 02:37:19;;;;;;;;;;;;;;;1.49;77.73;101760.81;5471200;32;35011;-80
2023/12/19 02:40:22;;;;;;;;;;;;;;;1.58;78.66;101754.06;5452615;32;34383;-81
2023/12/19 02:43:24;;;;;;;;;;;;;;;0.86;79.19;101754.28;5455261;32;35040;-79
2023/12/19 02:46:26;;;;;;;;;;;;;;;0.76;80.16;101747.16;5465942;32;35203;-78
2023/12/19 02:49:28;;;;;;;;;;;;;;;0.60;81.25;101753.69;5467250;32;34774;-79
2023/12/19 02:52:31;;;;;;;;;;;;;;;0.82;81.20;101740.41;5447462;32;34603;-79
2023/12/19 02:55:33;;;;;;;;;;;;;;;0.84;81.40;101736.97;5467348;32;34662;-80
2023/12/19 02:58:35;;;;;;;;;;;;;;;0.78;81.40;101754.12;5441825;32;35057;-77
2023/12/19 03:01:37;;;;;;;;;;;;;;;0.60;81.69;101752.84;5466441;32;34341;-78
2023/12/19 03:04:39;;;;;;;;;;;;;;;0.86;81.25;101740.47;5470763;32;35314;-78
2023/12/19 03:07:41;;;;;;;;;;;;;;;1.02;80.84;101732.19;5466561;32;34529;-80
2023/12/19 03:10:43;;;;;;;;;;;;;;;1.09;80.40;101736.66;5466106;32;34508;-78
2023/12/19 03:13:46;;;;;;;;;;;;;;;0.84;82.00;101737.88;5453417;32;34652;-80
2023/12/19 03:16:48;;;;;;;;;;;;;;;0.44;83.68;101744.69;5465581;32;36207;-80
2023/12/19 03:19:50;;;;;;;;;;;;;;;0.76;83.54;101721.28;5470127;32;35035;-78
2023/12/19 03:22:52;;;;;;;;;;;;;;;0.13;83.98;101731.84;5465006;32;35055;-78
2023/12/19 03:25:54;;;;;;;;;;;;;;;0.08;84.48;101725.72;5475432;32;34981;-78
2023/12/19 03:28:57;;;;;;;;;;;;;;;0.32;83.93;101736.62;5466524;32;34229;-78
2023/12/19 03:31:59;;;;;;;;;;;;;;;0.80;81.22;101730.88;5451785;32;35334;-80
2023/12/19 03:35:01;;;;;;;;;;;;;;;1.27;81.19;101725.81;5467418;32;36308;-82
2023/12/19 03:38:03;;;;;;;;;;;;;;;0.91;81.09;101721.63;5462648;32;36821;-78
2023/12/19 03:41:06;;;;;;;;;;;;;;;0.90;80.63;101717.28;5468984;32;34754;-77
2023/12/19 03:44:08;;;;;;;;;;;;;;;0.47;81.28;101705.09;5455628;32;34306;-77
2023/12/19 03:47:11;;;;;;;;;;;;;;;0.62;81.04;101720.97;5455412;32;34058;-80
2023/12/19 03:50:13;;;;;;;;;;;;;;;0.61;81.05;101728.72;5448724;32;34368;-78
2023/12/19 03:53:15;;;;;;;;;;;;;;;0.90;78.49;101717.28;5461961;32;34621;-80
2023/12/19 03:56:18;;;;;;;;;;;;;;;1.44;76.64;101715.78;5454459;32;34740;-81
2023/12/19 03:59:20;;;;;;;;;;;;;;;0.34;78.74;101708.25;5465966;32;34406;-79
2023/12/19 04:02:22;;;;;;;;;;;;;;;0.14;79.10;101720.69;5455311;32;35014;-81
2023/12/19 04:05:24;;;;;;;;;;;;;;;-0.02;83.72;101724.59;5467954;32;34428;-79
2023/12/19 04:08:26;;;;;;;;;;;;;;;-0.16;84.10;101728.53;5470440;32;34888;-78
2023/12/19 04:11:29;;;;;;;;;;;;;;;0.24;82.74;101720.94;5468356;32;34912;-78
2023/12/19 04:14:31;;;;;;;;;;;;;;;0.50;81.30;101718.09;5467154;32;34302;-79
2023/12/19 04:17:33;;;;;;;;;;;;;;;-0.31;83.63;101731.59;5475704;32;35472;-77
2023/12/19 04:20:36;;;;;;;;;;;;;;;-0.05;82.90;101740.91;5466487;32;34297;-78
2023/12/19 04:23:38;;;;;;;;;;;;;;;0.27;82.04;101740.84;5470643;32;35072;-81
2023/12/19 04:26:41;;;;;;;;;;;;;;;0.59;81.38;101735.56;5466213;32;35408;-78
2023/12/19 04:29:46;;;;;;;;;;;;;;;1.22;79.15;101724.84;5472689;32;34544;-78
2023/12/19 04:32:48;;;;;;;;;;;;;;;0.99;79.41;101708.84;5465997;32;34776;-78
2023/12/19 04:35:51;;;;;;;;;;;;;;;1.50;76.00;101721.09;5451828;32;35165;-77
2023/12/19 04:38:53;;;;;;;;;;;;;;;1.24;76.99;101716.28;5471360;32;34381;-78
2023/12/19 04:41:55;;;;;;;;;;;;;;;1.21;76.30;101723.97;5467269;32;34855;-78
2023/12/19 04:44:57;;;;;;;;;;;;;;;1.30;77.63;101729.34;5453013;32;34718;-79
2023/12/19 04:47:59;;;;;;;;;;;;;;;0.39;79.02;101751.50;5464312;32;35368;-78
2023/12/19 04:51:02;;;;;;;;;;;;;;;0.61;79.64;101772.69;5469810;32;34261;-80
2023/12/19 04:54:07;;;;;;;;;;;;;;;0.26;81.58;101760.66;5468151;32;35439;-79
2023/12/19 04:57:10;;;;;;;;;;;;;;;0.80;81.09;101754.16;5469114;32;34901;-79
2023/12/19 05:00:13;;;;;;;;;;;;;;;0.48;78.59;101754.28;5475255;32;34433;-79
2023/12/19 05:03:15;;;;;;;;;;;;;;;0.18;80.79;101750.94;5468469;32;35327;-80
2023/12/19 05:06:18;;;;;;;;;;;;;;;0.31;80.63;101736.59;5471056;32;34488;-79
2023/12/19 05:09:20;;;;;;;;;;;;;;;0.19;80.70;101750.09;5467082;32;35026;-78
2023/12/19 05:12:24;;;;;;;;;;;;;;;1.04;78.63;101746.94;5465545;32;35515;-79
2023/12/19 05:15:26;;;;;;;;;;;;;;;1.08;74.17;101737.50;5468349;32;34058;-80
2023/12/19 05:18:29;;;;;;;;;;;;;;;1.24;74.31;101743.88;5466439;32;35634;-79
2023/12/19 05:21:37;;;;;;;;;;;;;;;0.51;77.10;101745.72;5470903;32;35462;-77
2023/12/19 05:24:48;;;;;;;;;;;;;;;0.91;74.68;101739.75;5462224;32;35032;-82
2023/12/19 05:28:01;;;;;;;;;;;;;;;0.35;77.68;101734.13;5467204;32;34592;-78
2023/12/19 05:31:06;;;;;;;;;;;;;;;1.16;75.75;101724.72;5438887;32;34687;-79
2023/12/19 05:34:08;;;;;;;;;;;;;;;-0.17;79.54;101712.16;5464912;32;35126;-80
2023/12/19 05:37:11;;;;;;;;;;;;;;;0.14;78.54;101710.34;5448496;32;34598;-80
2023/12/19 05:40:13;;;;;;;;;;;;;;;0.12;79.09;101712.88;5466351;32;34812;-77
2023/12/19 05:43:16;;;;;;;;;;;;;;;0.59;78.23;101700.22;5455154;32;35032;-78
2023/12/19 05:46:18;;;;;;;;;;;;;;;0.31;78.96;101703.84;5465902;32;34244;-79
2023/12/19 05:49:20;;;;;;;;;;;;;;;1.11;76.10;101705.63;5467465;32;35088;-81
2023/12/19 05:52:22;;;;;;;;;;;;;;;1.10;75.38;101709.06;5466178;32;34406;-80
2023/12/19 05:55:25;;;;;;;;;;;;;;;0.35;78.24;101700.50;5465634;32;34819;-78
2023/12/19 05:58:30;;;;;;;;;;;;;;;0.35;77.87;101697.94;5472264;32;34688;-79
2023/12/19 06:01:32;;;;;;;;;;;;;;;0.39;78.25;101698.88;5459189;32;35374;-78
2023/12/19 06:04:34;;;;;;;;;;;;;;;-0.29;80.71;101693.75;5470444;32;34248;-79
2023/12/19 06:07:37;;;;;;;;;;;;;;;-0.21;81.38;101694.81;5466164;32;35194;-81
2023/12/19 06:10:39;;;;;;;;;;;;;;;0.23;80.98;101700.22;5455476;32;35382;-79
2023/12/19 06:13:41;;;;;;;;;;;;;;;0.51;78.21;101712.94;5467485;32;35160;-79
2023/12/19 06:16:43;;;;;;;;;;;;;;;1.15;74.61;101686.72;5467004;32;34755;-79
2023/12/19 06:19:46;;;;;;;;;;;;;;;1.06;76.23;101662.38;5468510;32;35331;-79
2023/12/19 06:22:48;;;;;;;;;;;;;;;2.01;71.58;101647.69;5436066;32;34832;-78
2023/12/19 06:25:50;;;;;;;;;;;;;;;1.01;74.06;101666.59;5473352;32;36181;-79
2023/12/19 06:28:53;;;;;;;;;;;;;;;0.83;76.08;101668.78;5467968;32;35346;-77
2023/12/19 06:31:55;;;;;;;;;;;;;;;0.64;77.61;101670.13;5452937;32;34242;-79
2023/12/19 06:34:57;;;;;;;;;;;;;;;1.64;75.50;101672.97;5469503;32;34527;-82
2023/12/19 06:37:59;;;;;;;;;;;;;;;0.95;76.14;101694.94;5467370;32;34398;-76
2023/12/19 06:41:01;;;;;;;;;;;;;;;0.89;75.85;101692.22;5453149;32;35396;-82
2023/12/19 06:44:03;;;;;;;;;;;;;;;0.99;76.88;101696.78;5476829;32;34910;-82
2023/12/19 06:47:05;;;;;;;;;;;;;;;1.07;76.68;101700.38;5452012;32;35443;-77
2023/12/19 06:50:08;;;;;;;;;;;;;;;1.12;75.70;101697.91;5458780;32;34544;-76
2023/12/19 06:53:10;;;;;;;;;;;;;;;1.15;77.51;101695.34;5459254;32;34437;-76
2023/12/19 06:56:12;;;;;;;;;;;;;;;0.68;76.77;101692.66;5469431;32;34339;-76
2023/12/19 06:59:14;;;;;;;;;;;;;;;1.16;76.92;101699.72;5455848;32;34128;-74
2023/12/19 07:02:16;;;;;;;;;;;;;;;1.71;75.85;101690.38;5433534;32;34385;-85
2023/12/19 07:05:24;;;;;;;;;;;;;;;1.45;74.70;101681.25;5447864;32;34788;-82
2023/12/19 07:08:26;;;;;;;;;;;;;;;1.47;75.69;101688.22;5447925;32;34746;-76
2023/12/19 07:11:32;;;;;;;;;;;;;;;2.33;71.18;101687.09;5465047;32;34417;-75
2023/12/19 07:14:34;;;;;;;;;;;;;;;1.14;74.75;101698.78;5459790;32;35512;-80
2023/12/19 07:17:37;;;;;;;;;;;;;;;0.71;76.66;101692.72;5448044;32;34304;-77
2023/12/19 07:20:39;;;;;;;;;;;;;;;1.71;75.89;101698.16;5457787;32;34366;-73
2023/12/19 07:23:41;;;;;;;;;;;;;;;0.88;77.11;101694.78;5444682;32;36462;-77
2023/12/19 07:26:43;;;;;;;;;;;;;;;2.56;70.33;101703.00;5459812;32;34203;-73
2023/12/19 07:29:45;;;;;;;;;;;;;;;2.27;71.45;101693.06;5463621;32;34292;-78
2023/12/19 07:32:49;;;;;;;;;;;;;;;2.04;72.17;101695.28;5458527;32;34227;-73
2023/12/19 07:35:51;;;;;;;;;;;;;;;1.80;74.02;101684.47;5455602;32;33259;-75
2023/12/19 07:38:54;;;;;;;;;;;;;;;1.80;73.69;101680.19;5465477;32;32376;-74
2023/12/19 07:41:56;;;;;;;;;;;;;;;2.60;70.29;101674.53;5459730;32;35717;-79
2023/12/19 07:44:59;;;;;;;;;;;;;;;2.42;70.29;101688.09;5461072;32;35453;-73
2023/12/19 07:48:01;;;;;;;;;;;;;;;2.47;71.19;101695.97;5460011;32;34679;-76
2023/12/19 07:51:03;;;;;;;;;;;;;;;1.85;72.75;101720.00;5456885;32;33554;-73
2023/12/19 07:54:06;;;;;;;;;;;;;;;1.54;74.90;101709.91;5447116;32;36192;-67
2023/12/19 07:57:10;;;;;;;;;;;;;;;2.46;71.24;101717.56;5459645;32;33821;-75
2023/12/19 08:00:15;;;;;;;;;;;;;;;3.36;67.61;101707.53;5447751;32;34498;-71
2023/12/19 08:03:18;;;;;;;;;;;;;;;1.17;73.50;101717.00;5457022;32;34932;-73
2023/12/19 08:06:22;;;;;;;;;;;;;;;1.43;73.21;101709.75;5461964;32;34362;-73
2023/12/19 08:09:26;;;;;;;;;;;;;;;0.66;77.23;101714.16;5456633;32;34261;-67
2023/12/19 08:12:28;;;;;;;;;;;;;;;0.92;78.16;101712.16;5460143;32;35614;-72
2023/12/19 08:15:30;;;;;;;;;;;;;;;1.95;76.47;101728.84;5461004;32;34236;-83
2023/12/19 08:18:32;;;;;;;;;;;;;;;1.97;73.92;101713.31;5446767;32;34264;-78
2023/12/19 08:21:46;;;;;;;;;;;;;;;2.11;72.66;101709.22;5464342;32;34196;-75
2023/12/19 08:24:49;;;;;;;;;;;;;;;1.51;76.89;101721.13;5457511;32;34460;-70
2023/12/19 08:27:51;;;;;;;;;;;;;;;0.83;78.20;101715.37;5465450;32;37115;-74
2023/12/19 08:30:53;;;;;;;;;;;;;;;1.65;76.38;101710.12;5460777;32;34419;-75
2023/12/19 08:33:56;;;;;;;;;;;;;;;1.76;73.93;101703.44;5463662;32;34278;-76
2023/12/19 08:36:58;;;;;;;;;;;;;;;2.10;75.87;101723.03;5463151;32;36112;-76
2023/12/19 08:40:02;;;;;;;;;;;;;;;1.72;74.59;101723.22;5459436;32;35798;-68
2023/12/19 08:43:05;;;;;;;;;;;;;;;1.11;75.01;101722.03;5458303;32;34230;-75
2023/12/19 08:46:07;;;;;;;;;;;;;;;1.47;76.74;101723.59;5459740;32;34673;-75
2023/12/19 08:49:10;;;;;;;;;;;;;;;2.06;72.85;101710.84;5466006;32;34342;-80
2023/12/19 08:52:13;;;;;;;;;;;;;;;1.40;75.24;101713.97;5444452;32;34248;-76
2023/12/19 08:55:15;;;;;;;;;;;;;;;2.83;70.62;101705.97;5459841;32;36211;-73
2023/12/19 08:58:18;;;;;;;;;;;;;;;2.62;69.38;101687.50;5466236;32;35461;-76
2023/12/19 09:01:20;;;;;;;;;;;;;;;1.39;71.44;101696.69;5455344;32;33191;-80
2023/12/19 09:04:22;;;;;;;;;;;;;;;1.69;72.12;101681.72;5464865;32;35161;-75
2023/12/19 09:07:30;;;;;;;;;;;;;;;1.69;73.59;101680.84;5460815;32;34458;-75
2023/12/19 09:10:33;;;;;;;;;;;;;;;1.23;73.78;101685.16;5435950;32;34199;-75
2023/12/19 09:13:38;;;;;;;;;;;;;;;1.06;74.82;101693.47;5456083;32;35425;-73
2023/12/19 09:16:40;;;;;;;;;;;;;;;1.57;73.87;101672.00;5457787;32;35887;-70
2023/12/19 09:19:42;;;;;;;;;;;;;;;1.97;70.00;101661.44;5467525;32;37765;-75
2023/12/19 09:22:44;;;;;;;;;;;;;;;1.68;73.08;101661.84;5444281;32;34262;-70
2023/12/19 09:25:47;;;;;;;;;;;;;;;1.48;73.37;101660.56;5459874;32;34354;-76
2023/12/19 09:28:49;;;;;;;;;;;;;;;1.46;73.40;101660.56;5460794;32;34334;-68
2023/12/19 09:31:54;;;;;;;;;;;;;;;1.83;75.37;101632.69;5451064;32;33451;-70
2023/12/19 09:34:56;;;;;;;;;;;;;;;1.36;74.27;101637.94;5439481;32;34129;-71
2023/12/19 09:38:01;;;;;;;;;;;;;;;2.30;70.42;101619.59;5459269;32;35121;-69
2023/12/19 09:41:04;;;;;;;;;;;;;;;1.61;72.79;101618.50;5461627;32;34433;-77
2023/12/19 09:44:06;;;;;;;;;;;;;;;2.21;70.22;101602.16;5459170;32;34609;-74
2023/12/19 09:47:13;;;;;;;;;;;;;;;2.42;70.35;101593.81;5447852;32;34596;-76
2023/12/19 09:50:18;;;;;;;;;;;;;;;3.56;66.13;101593.34;5456109;32;34395;-81
2023/12/19 09:53:20;;;;;;;;;;;;;;;2.83;68.86;101581.34;5450738;32;35180;-75
2023/12/19 09:56:29;;;;;;;;;;;;;;;2.81;68.26;101577.00;5448986;32;33378;-72
2023/12/19 09:59:31;;;;;;;;;;;;;;;3.15;66.25;101563.50;5440716;32;36774;-74
2023/12/19 10:02:33;;;;;;;;;;;;;;;2.06;70.09;101558.75;5438566;32;35841;-72
2023/12/19 10:05:35;;;;;;;;;;;;;;;1.86;72.75;101555.81;5449689;32;35227;-75
2023/12/19 10:08:44;;;;;;;;;;;;;;;2.51;71.02;101541.16;5446976;32;35352;-75
2023/12/19 10:11:48;;;;;;;;;;;;;;;1.82;72.87;101541.09;5441533;32;34134;-82
2023/12/19 10:14:51;;;;;;;;;;;;;;;1.64;73.88;101540.81;5456146;32;36121;-72
2023/12/19 10:18:08;;;;;;;;;;;;;;;2.18;71.62;101522.56;5459037;32;34643;-75
2023/12/19 10:21:11;;;;;;;;;;;;;;;2.72;69.67;101524.13;5426870;32;825673;-79
2023/12/19 10:24:24;;;;;;;;;;;;;;;2.08;73.63;101519.84;5458490;32;35344;-68
2023/12/19 10:27:27;;;;;;;;;;;;;;;3.27;68.47;101521.19;5453403;32;34227;-76
2023/12/19 10:30:29;;;;;;;;;;;;;;;2.63;68.69;101517.94;5460072;32;35315;-79
2023/12/19 10:33:40;;;;;;;;;;;;;;;3.14;67.73;101515.00;5454188;32;35381;-83
2023/12/19 10:36:44;;;;;;;;;;;;;;;1.97;70.81;101524.00;5460119;32;35606;-76
2023/12/19 10:39:50;;;;;;;;;;;;;;;1.70;74.77;101522.75;5456591;32;34921;-69
2023/12/19 10:42:56;;;;;;;;;;;;;;;1.56;74.84;101506.12;5459298;32;35246;-80
2023/12/19 10:45:58;;;;;;;;;;;;;;;2.11;73.63;101510.38;5454070;32;34091;-68
2023/12/19 10:49:00;;;;;;;;;;;;;;;1.82;75.01;101511.72;5440112;32;34729;-74
2023/12/19 10:52:07;;;;;;;;;;;;;;;1.51;74.28;101507.78;5438301;32;34201;-70
2023/12/19 10:55:11;;;;;;;;;;;;;;;1.12;75.43;101492.47;5460432;32;34246;-76
2023/12/19 10:58:24;;;;;;;;;;;;;;;1.88;74.79;101485.88;5455400;32;35372;-77
2023/12/19 11:01:28;;;;;;;;;;;;;;;2.12;73.91;101474.94;5460433;32;34440;-73
2023/12/19 11:04:32;;;;;;;;;;;;;;;2.02;72.85;101481.75;5426527;32;35290;-74
2023/12/19 11:07:34;;;;;;;;;;;;;;;1.79;73.74;101478.81;5460673;32;34475;-74
2023/12/19 11:10:37;;;;;;;;;;;;;;;2.53;71.49;101465.06;5444605;32;34326;-76
2023/12/19 11:13:42;;;;;;;;;;;;;;;2.31;71.30;101461.34;5458577;32;34072;-77
2023/12/19 11:17:04;;;;;;;;;;;;;;;2.93;69.37;101442.09;5427046;32;34137;-74
2023/12/19 11:20:29;;;;;;;;;;;;;;;3.68;67.52;101433.13;5444392;32;33052;-77
2023/12/19 11:23:37;;;;;;;;;;;;;;;2.62;70.54;101426.22;5455548;32;34415;-81
2023/12/19 11:26:48;;;;;;;;;;;;;;;2.40;73.29;101437.25;5465662;32;35606;-71
2023/12/19 11:29:50;;;;;;;;;;;;;;;2.34;71.12;101432.84;5456698;32;35028;-75
2023/12/19 11:32:53;;;;;;;;;;;;;;;2.65;70.89;101430.59;5447394;32;34279;-69
2023/12/19 11:35:55;;;;;;;;;;;;;;;3.16;69.74;101429.31;5447565;32;34620;-92
2023/12/19 11:39:15;;;;;;;;;;;;;;;3.47;67.41;101425.19;5470015;32;34339;-64
2023/12/19 11:42:36;;;;;;;;;;;;;;;3.49;67.66;101421.75;5463271;32;35789;-78
2023/12/19 11:45:40;;;;;;;;;;;;;;;2.96;69.59;101429.13;5461635;32;35355;-71
2023/12/19 11:48:46;;;;;;;;;;;;;;;4.21;65.75;101422.09;5456016;32;34163;-72
2023/12/19 11:51:54;;;;;;;;;;;;;;;2.70;69.83;101419.41;5450401;32;34240;-81
2023/12/19 11:54:57;;;;;;;;;;;;;;;2.49;72.08;101433.87;5458442;32;34443;-78
2023/12/19 11:58:11;;;;;;;;;;;;;;;3.41;69.95;101427.72;5456095;32;35413;-68
2023/12/19 12:01:13;;;;;;;;;;;;;;;3.15;67.00;101424.94;5437506;32;34430;-72
2023/12/19 12:04:16;;;;;;;;;;;;;;;2.51;70.34;101424.38;5445516;32;33776;-78
2023/12/19 12:07:18;;;;;;;;;;;;;;;1.95;72.42;101420.28;5455830;32;33826;-69
2023/12/19 12:10:24;;;;;;;;;;;;;;;1.89;74.05;101412.44;5448067;32;35518;-79
2023/12/19 12:13:27;;;;;;;;;;;;;;;2.31;71.28;101411.19;5430755;32;35076;-73
2023/12/19 12:16:39;;;;;;;;;;;;;;;1.77;73.22;101409.69;5441047;32;34370;-73
2023/12/19 12:19:51;;;;;;;;;;;;;;;2.60;72.88;101401.97;5446991;32;34812;-73
2023/12/19 12:22:54;;;;;;;;;;;;;;;2.16;73.46;101397.19;5443145;32;34260;-73
2023/12/19 12:25:57;;;;;;;;;;;;;;;3.39;69.57;101377.50;5459218;32;35513;-74
2023/12/19 12:28:59;;;;;;;;;;;;;;;3.05;70.74;101381.59;5441159;32;36125;-73
2023/12/19 12:32:01;;;;;;;;;;;;;;;1.96;73.60;101370.16;5448577;32;34570;-71
2023/12/19 12:35:23;;;;;;;;;;;;;;;1.52;74.16;101367.88;5451400;32;34877;-72
2023/12/19 12:38:26;;;;;;;;;;;;;;;1.41;75.91;101359.09;5442275;32;36080;-70
2023/12/19 12:41:33;;;;;;;;;;;;;;;1.41;76.64;101364.25;5460387;32;36115;-76
2023/12/19 12:44:35;;;;;;;;;;;;;;;2.39;73.28;101350.75;5430545;32;36121;-73
2023/12/19 12:47:41;;;;;;;;;;;;;;;1.45;76.29;101347.94;5448903;32;34878;-74
2023/12/19 12:50:52;;;;;;;;;;;;;;;2.31;74.74;101336.81;5457393;32;36119;-83
2023/12/19 12:53:57;;;;;;;;;;;;;;;2.00;74.87;101325.28;5461314;32;34046;-79
2023/12/19 12:56:59;;;;;;;;;;;;;;;2.74;72.16;101331.16;5464383;32;35338;-70
2023/12/19 13:00:01;;;;;;;;;;;;;;;2.24;71.59;101323.78;5456060;32;35377;-74
2023/12/19 13:03:08;;;;;;;;;;;;;;;2.71;71.33;101319.03;5452287;32;34308;-78
2023/12/19 13:06:10;;;;;;;;;;;;;;;1.73;75.78;101320.63;5455507;32;35797;-80
2023/12/19 13:09:13;;;;;;;;;;;;;;;2.33;73.26;101316.97;5445331;32;33977;-89
2023/12/19 13:12:15;;;;;;;;;;;;;;;2.90;72.20;101320.91;5451593;32;34252;-75
2023/12/19 13:15:18;;;;;;;;;;;;;;;2.57;71.64;101318.88;5452826;32;34946;-84
2023/12/19 13:18:21;;;;;;;;;;;;;;;2.90;70.41;101312.25;5463606;32;33839;-75
2023/12/19 13:21:23;;;;;;;;;;;;;;;2.17;73.11;101322.84;5459296;32;35480;-77
2023/12/19 13:24:25;;;;;;;;;;;;;;;3.52;68.21;101320.38;5447687;32;34180;-71
2023/12/19 13:27:27;;;;;;;;;;;;;;;3.19;70.24;101325.41;5444469;32;35348;-80
2023/12/19 13:30:29;;;;;;;;;;;;;;;4.10;65.89;101308.44;5463933;32;34199;-72
2023/12/19 13:33:32;;;;;;;;;;;;;;;3.31;67.80;101314.22;5461860;32;34285;-81
2023/12/19 13:36:37;;;;;;;;;;;;;;;2.83;68.90;101316.50;5461265;32;33714;-85
2023/12/19 13:39:43;;;;;;;;;;;;;;;1.37;75.80;101305.50;5449885;32;35205;-78
2023/12/19 13:42:45;;;;;;;;;;;;;;;2.03;75.40;101308.88;5457769;32;34117;-72
2023/12/19 13:45:47;;;;;;;;;;;;;;;1.50;76.52;101315.19;5465403;32;34211;-73
2023/12/19 13:48:51;;;;;;;;;;;;;;;2.07;75.76;101313.25;5457887;32;36048;-73
2023/12/19 13:51:55;;;;;;;;;;;;;;;1.97;74.05;101303.63;5439859;32;34701;-74
2023/12/19 13:54:58;;;;;;;;;;;;;;;2.05;76.28;101304.56;5465427;32;34963;-70
2023/12/19 13:58:00;;;;;;;;;;;;;;;2.74;73.22;101306.06;5446458;32;34195;-71
2023/12/19 14:01:02;;;;;;;;;;;;;;;2.45;73.73;101303.25;5446412;32;34089;-74
2023/12/19 14:04:05;;;;;;;;;;;;;;;2.61;72.51;101302.50;5458066;32;36246;-73
2023/12/19 14:07:13;;;;;;;;;;;;;;;2.96;69.22;101296.66;5463085;32;33958;-74
2023/12/19 14:10:15;;;;;;;;;;;;;;;1.93;75.47;101297.53;5461940;32;34282;-72
2023/12/19 14:13:18;;;;;;;;;;;;;;;2.33;74.90;101284.97;5429121;32;32682;-79
2023/12/19 14:16:20;;;;;;;;;;;;;;;3.44;71.34;101282.22;5463617;32;35102;-76
2023/12/19 14:19:22;;;;;;;;;;;;;;;3.15;70.05;101271.69;5461489;32;34414;-83
2023/12/19 14:22:24;;;;;;;;;;;;;;;3.33;69.14;101265.72;5464152;32;34944;-70
2023/12/19 14:25:26;;;;;;;;;;;;;;;2.25;73.51;101271.91;5460318;32;34287;-72
2023/12/19 14:28:28;;;;;;;;;;;;;;;2.72;72.31;101268.84;5462406;32;35594;-81
2023/12/19 14:31:32;;;;;;;;;;;;;;;2.90;70.80;101275.88;5455727;32;35498;-80
2023/12/19 14:34:34;;;;;;;;;;;;;;;2.53;72.37;101267.84;5443064;32;34238;-79
2023/12/19 14:37:36;;;;;;;;;;;;;;;1.67;75.68;101271.31;5465100;32;34143;-73
2023/12/19 14:40:38;;;;;;;;;;;;;;;1.65;78.04;101266.97;5457335;32;35581;-73
2023/12/19 14:43:43;;;;;;;;;;;;;;;1.79;76.00;101268.84;5444970;32;34361;-77
2023/12/19 14:46:45;;;;;;;;;;;;;;;1.87;76.76;101258.59;5446808;32;34653;-69
2023/12/19 14:49:47;;;;;;;;;;;;;;;2.30;75.62;101257.25;5447086;32;34970;-69
2023/12/19 14:52:50;;;;;;;;;;;;;;;3.28;71.41;101244.91;5457995;32;35402;-76
2023/12/19 14:55:51;;;;;;;;;;;;;;;2.49;72.21;101247.03;5460845;32;34648;-68
2023/12/19 14:58:53;;;;;;;;;;;;;;;2.80;71.41;101237.72;5465628;32;34994;-73
2023/12/19 15:01:57;;;;;;;;;;;;;;;2.58;73.93;101227.22;5462292;32;34949;-70
2023/12/19 15:04:59;;;;;;;;;;;;;;;2.76;71.97;101229.03;5446480;32;35497;-70
2023/12/19 15:08:02;;;;;;;;;;;;;;;1.35;76.52;101216.53;5450980;32;34930;-76
2023/12/19 15:11:05;;;;;;;;;;;;;;;1.82;77.75;101214.47;5449345;32;34576;-69
2023/12/19 15:14:07;;;;;;;;;;;;;;;2.68;74.46;101207.38;5456416;32;32967;-78
2023/12/19 15:17:09;;;;;;;;;;;;;;;1.32;79.01;101196.66;5460825;32;34659;-77
2023/12/19 15:20:11;;;;;;;;;;;;;;;2.54;76.31;101193.44;5464289;32;35279;-77
2023/12/19 15:23:13;;;;;;;;;;;;;;;2.71;74.24;101184.91;5460013;32;35504;-69
2023/12/19 15:26:15;;;;;;;;;;;;;;;2.66;76.03;101189.19;5456527;32;36382;-69
2023/12/19 15:29:17;;;;;;;;;;;;;;;2.93;74.41;101177.22;5456965;32;34866;-69
2023/12/19 15:32:19;;;;;;;;;;;;;;;2.29;76.15;101179.44;5465828;32;34368;-78
2023/12/19 15:35:21;;;;;;;;;;;;;;;2.26;75.63;101176.81;5447665;32;35484;-76
2023/12/19 15:38:23;;;;;;;;;;;;;;;2.47;75.98;101163.13;5461533;32;34861;-77
2023/12/19 15:41:25;;;;;;;;;;;;;;;1.53;79.24;101159.75;5466001;32;35350;-75
2023/12/19 15:44:27;;;;;;;;;;;;;;;3.13;76.04;101157.38;5462361;32;35366;-76
2023/12/19 15:47:29;;;;;;;;;;;;;;;3.04;75.22;101148.72;5465667;32;35588;-70
2023/12/19 15:50:32;;;;;;;;;;;;;;;2.20;76.06;101156.91;5445876;32;35041;-69
2023/12/19 15:53:35;;;;;;;;;;;;;;;2.17;77.80;101157.72;5467327;32;35574;-78